Terminal Aerodrome Forecast
Issued by NWS

Home | Current Version | Previous Version | Graphics & Text | Print | Product List | Glossary On
Versions: 1 2 3 4 5 6 7 8 9 10 11 12 13 14 15 16 17 18 19 20
000
FTUS43 KBIS 260700 AAA
TAFMOT
TAF AMD
KMOT 260725Z 2607/2706 30012G17KT P6SM SCT015 OVC025
      TEMPO 2607/2609 FEW020
     FM260900 32011KT P6SM -SHSN OVC009
     FM261300 31008KT P6SM OVC016
      TEMPO 2614/2617 SCT015 BKN035
     FM261700 30006KT P6SM SCT008 BKN180=

USA.gov is the U.S. government's official web portal to all federal, state and local government web resources and services.